sensor_id;sensor_type;location;lat;lon;timestamp;temperature;humidity
9179;DHT22;4624;48.126;11.546;2022-09-09T00:00:47;17.30;97.20
9179;DHT22;4624;48.126;11.546;2022-09-09T00:03:18;17.20;97.40
9179;DHT22;4624;48.126;11.546;2022-09-09T00:05:51;17.20;97.60
9179;DHT22;4624;48.126;11.546;2022-09-09T00:08:28;17.10;97.60
9179;DHT22;4624;48.126;11.546;2022-09-09T00:11:01;17.10;97.70
9179;DHT22;4624;48.126;11.546;2022-09-09T00:13:35;17.00;97.90
9179;DHT22;4624;48.126;11.546;2022-09-09T00:16:08;17.00;97.80
9179;DHT22;4624;48.126;11.546;2022-09-09T00:18:48;17.00;97.90
9179;DHT22;4624;48.126;11.546;2022-09-09T00:21:18;17.00;98.00
9179;DHT22;4624;48.126;11.546;2022-09-09T00:23:49;17.00;98.00
9179;DHT22;4624;48.126;11.546;2022-09-09T00:26:21;17.00;98.00
9179;DHT22;4624;48.126;11.546;2022-09-09T00:28:55;17.00;98.00
9179;DHT22;4624;48.126;11.546;2022-09-09T00:31:27;17.10;98.20
9179;DHT22;4624;48.126;11.546;2022-09-09T00:33:57;17.00;98.20
9179;DHT22;4624;48.126;11.546;2022-09-09T00:36:27;17.10;98.40
9179;DHT22;4624;48.126;11.546;2022-09-09T00:38:59;17.10;98.40
9179;DHT22;4624;48.126;11.546;2022-09-09T00:41:38;17.10;98.50
9179;DHT22;4624;48.126;11.546;2022-09-09T00:44:20;17.10;98.50
9179;DHT22;4624;48.126;11.546;2022-09-09T00:46:59;17.10;98.60
9179;DHT22;4624;48.126;11.546;2022-09-09T00:49:36;17.10;98.60
9179;DHT22;4624;48.126;11.546;2022-09-09T00:52:17;17.10;98.50
9179;DHT22;4624;48.126;11.546;2022-09-09T00:54:58;17.10;98.40
9179;DHT22;4624;48.126;11.546;2022-09-09T00:57:29;17.10;98.30
9179;DHT22;4624;48.126;11.546;2022-09-09T01:00:15;17.10;98.50
9179;DHT22;4624;48.126;11.546;2022-09-09T01:02:56;17.10;98.60
9179;DHT22;4624;48.126;11.546;2022-09-09T01:05:33;17.20;98.60
9179;DHT22;4624;48.126;11.546;2022-09-09T01:08:08;17.20;98.50
9179;DHT22;4624;48.126;11.546;2022-09-09T01:10:43;17.20;98.50
9179;DHT22;4624;48.126;11.546;2022-09-09T01:13:17;17.20;98.60
9179;DHT22;4624;48.126;11.546;2022-09-09T01:15:47;17.10;98.60
9179;DHT22;4624;48.126;11.546;2022-09-09T01:18:17;17.20;98.60
9179;DHT22;4624;48.126;11.546;2022-09-09T01:20:49;17.20;98.60
9179;DHT22;4624;48.126;11.546;2022-09-09T01:23:33;17.20;98.70
9179;DHT22;4624;48.126;11.546;2022-09-09T01:26:19;17.20;98.70
9179;DHT22;4624;48.126;11.546;2022-09-09T01:28:49;17.10;98.60
9179;DHT22;4624;48.126;11.546;2022-09-09T01:31:20;17.10;98.80
9179;DHT22;4624;48.126;11.546;2022-09-09T01:33:48;17.10;98.70
9179;DHT22;4624;48.126;11.546;2022-09-09T01:36:21;17.10;98.70
9179;DHT22;4624;48.126;11.546;2022-09-09T01:38:51;17.10;98.80
9179;DHT22;4624;48.126;11.546;2022-09-09T01:41:19;17.00;98.70
9179;DHT22;4624;48.126;11.546;2022-09-09T01:43:47;17.00;98.80
9179;DHT22;4624;48.126;11.546;2022-09-09T01:46:15;16.90;98.80
9179;DHT22;4624;48.126;11.546;2022-09-09T01:48:43;16.80;98.90
9179;DHT22;4624;48.126;11.546;2022-09-09T01:51:11;16.80;99.10
9179;DHT22;4624;48.126;11.546;2022-09-09T01:53:39;16.80;99.20
9179;DHT22;4624;48.126;11.546;2022-09-09T01:56:17;16.80;99.20
9179;DHT22;4624;48.126;11.546;2022-09-09T01:59:02;16.80;99.30
9179;DHT22;4624;48.126;11.546;2022-09-09T02:01:39;16.80;99.40
9179;DHT22;4624;48.126;11.546;2022-09-09T02:04:20;16.90;99.50
9179;DHT22;4624;48.126;11.546;2022-09-09T02:06:53;16.90;99.50
9179;DHT22;4624;48.126;11.546;2022-09-09T02:09:24;16.80;99.70
9179;DHT22;4624;48.126;11.546;2022-09-09T02:11:55;16.80;99.80
9179;DHT22;4624;48.126;11.546;2022-09-09T02:14:30;16.80;99.60
9179;DHT22;4624;48.126;11.546;2022-09-09T02:17:02;16.80;99.70
9179;DHT22;4624;48.126;11.546;2022-09-09T02:19:32;16.80;99.80
9179;DHT22;4624;48.126;11.546;2022-09-09T02:22:01;16.70;99.80
9179;DHT22;4624;48.126;11.546;2022-09-09T02:24:30;16.70;99.70
9179;DHT22;4624;48.126;11.546;2022-09-09T02:27:02;16.70;99.80
9179;DHT22;4624;48.126;11.546;2022-09-09T02:29:34;16.70;99.90
9179;DHT22;4624;48.126;11.546;2022-09-09T02:32:04;16.60;99.90
9179;DHT22;4624;48.126;11.546;2022-09-09T02:34:35;16.60;99.90
9179;DHT22;4624;48.126;11.546;2022-09-09T02:37:03;16.60;99.90
9179;DHT22;4624;48.126;11.546;2022-09-09T02:39:31;16.70;99.90
9179;DHT22;4624;48.126;11.546;2022-09-09T02:41:58;16.70;99.90
9179;DHT22;4624;48.126;11.546;2022-09-09T02:44:25;16.70;99.90
9179;DHT22;4624;48.126;11.546;2022-09-09T02:47:10;16.70;99.90
9179;DHT22;4624;48.126;11.546;2022-09-09T02:49:45;16.80;99.90
9179;DHT22;4624;48.126;11.546;2022-09-09T02:52:16;16.80;99.90
9179;DHT22;4624;48.126;11.546;2022-09-09T02:54:46;16.70;99.90
9179;DHT22;4624;48.126;11.546;2022-09-09T02:57:17;16.70;99.90
9179;DHT22;4624;48.126;11.546;2022-09-09T02:59:46;16.70;99.90
9179;DHT22;4624;48.126;11.546;2022-09-09T03:02:14;16.70;99.90
9179;DHT22;4624;48.126;11.546;2022-09-09T03:04:41;16.80;99.90
9179;DHT22;4624;48.126;11.546;2022-09-09T03:07:09;16.80;99.90
9179;DHT22;4624;48.126;11.546;2022-09-09T03:09:36;16.80;99.90
9179;DHT22;4624;48.126;11.546;2022-09-09T03:12:03;16.80;99.90
9179;DHT22;4624;48.126;11.546;2022-09-09T03:14:30;16.70;99.90
9179;DHT22;4624;48.126;11.546;2022-09-09T03:16:57;16.70;99.90
9179;DHT22;4624;48.126;11.546;2022-09-09T03:19:27;16.80;99.90
9179;DHT22;4624;48.126;11.546;2022-09-09T03:21:55;16.80;99.90
9179;DHT22;4624;48.126;11.546;2022-09-09T03:24:22;16.70;99.90
9179;DHT22;4624;48.126;11.546;2022-09-09T03:26:49;16.70;99.90
9179;DHT22;4624;48.126;11.546;2022-09-09T03:29:16;16.70;99.90
9179;DHT22;4624;48.126;11.546;2022-09-09T03:31:44;16.60;99.90
9179;DHT22;4624;48.126;11.546;2022-09-09T03:34:11;16.50;99.90
9179;DHT22;4624;48.126;11.546;2022-09-09T03:36:40;16.50;99.90
9179;DHT22;4624;48.126;11.546;2022-09-09T03:39:07;16.50;99.90
9179;DHT22;4624;48.126;11.546;2022-09-09T03:41:34;16.40;99.90
9179;DHT22;4624;48.126;11.546;2022-09-09T03:44:02;16.50;99.90
9179;DHT22;4624;48.126;11.546;2022-09-09T03:46:29;16.40;99.90
9179;DHT22;4624;48.126;11.546;2022-09-09T03:48:56;16.30;99.90
9179;DHT22;4624;48.126;11.546;2022-09-09T03:51:23;16.40;99.90
9179;DHT22;4624;48.126;11.546;2022-09-09T03:53:51;16.40;99.90
9179;DHT22;4624;48.126;11.546;2022-09-09T03:56:22;16.40;99.90
9179;DHT22;4624;48.126;11.546;2022-09-09T03:58:48;16.40;99.90
9179;DHT22;4624;48.126;11.546;2022-09-09T04:01:15;16.40;99.90
9179;DHT22;4624;48.126;11.546;2022-09-09T04:03:43;16.40;99.90
9179;DHT22;4624;48.126;11.546;2022-09-09T04:06:11;16.40;99.90
9179;DHT22;4624;48.126;11.546;2022-09-09T04:08:40;16.40;99.90
9179;DHT22;4624;48.126;11.546;2022-09-09T04:11:08;16.50;99.90
9179;DHT22;4624;48.126;11.546;2022-09-09T04:13:36;16.50;99.90
9179;DHT22;4624;48.126;11.546;2022-09-09T04:16:05;16.50;99.90
9179;DHT22;4624;48.126;11.546;2022-09-09T04:18:32;16.50;99.90
9179;DHT22;4624;48.126;11.546;2022-09-09T04:20:59;16.50;99.90
9179;DHT22;4624;48.126;11.546;2022-09-09T04:23:27;16.50;99.90
9179;DHT22;4624;48.126;11.546;2022-09-09T04:25:55;16.50;99.90
9179;DHT22;4624;48.126;11.546;2022-09-09T04:28:26;16.50;99.90
9179;DHT22;4624;48.126;11.546;2022-09-09T04:30:53;16.50;99.90
9179;DHT22;4624;48.126;11.546;2022-09-09T04:33:20;16.50;99.90
9179;DHT22;4624;48.126;11.546;2022-09-09T04:35:48;16.50;99.90
9179;DHT22;4624;48.126;11.546;2022-09-09T04:38:15;16.50;99.90
9179;DHT22;4624;48.126;11.546;2022-09-09T04:40:43;16.40;99.90
9179;DHT22;4624;48.126;11.546;2022-09-09T04:43:10;16.40;99.90
9179;DHT22;4624;48.126;11.546;2022-09-09T04:45:38;16.40;99.90
9179;DHT22;4624;48.126;11.546;2022-09-09T04:48:06;16.40;99.90
9179;DHT22;4624;48.126;11.546;2022-09-09T04:50:33;16.40;99.90
9179;DHT22;4624;48.126;11.546;2022-09-09T04:53:00;16.30;99.90
9179;DHT22;4624;48.126;11.546;2022-09-09T04:55:27;16.30;99.90
9179;DHT22;4624;48.126;11.546;2022-09-09T04:57:54;16.30;99.90
9179;DHT22;4624;48.126;11.546;2022-09-09T05:00:22;16.30;99.90
9179;DHT22;4624;48.126;11.546;2022-09-09T05:02:50;16.30;99.90
9179;DHT22;4624;48.126;11.546;2022-09-09T05:05:16;16.30;99.90
9179;DHT22;4624;48.126;11.546;2022-09-09T05:07:44;16.30;99.90
9179;DHT22;4624;48.126;11.546;2022-09-09T05:10:11;16.20;99.90
9179;DHT22;4624;48.126;11.546;2022-09-09T05:12:39;16.20;99.90
9179;DHT22;4624;48.126;11.546;2022-09-09T05:15:07;16.20;99.90
9179;DHT22;4624;48.126;11.546;2022-09-09T05:17:33;16.20;99.90
9179;DHT22;4624;48.126;11.546;2022-09-09T05:20:02;16.20;99.90
9179;DHT22;4624;48.126;11.546;2022-09-09T05:22:29;16.30;99.90
9179;DHT22;4624;48.126;11.546;2022-09-09T05:24:56;16.30;99.90
9179;DHT22;4624;48.126;11.546;2022-09-09T05:27:23;16.30;99.90
9179;DHT22;4624;48.126;11.546;2022-09-09T05:29:50;16.30;99.90
9179;DHT22;4624;48.126;11.546;2022-09-09T05:32:17;16.30;99.90
9179;DHT22;4624;48.126;11.546;2022-09-09T05:34:44;16.30;99.90
9179;DHT22;4624;48.126;11.546;2022-09-09T05:37:13;16.20;99.90
9179;DHT22;4624;48.126;11.546;2022-09-09T05:39:40;16.20;99.90
9179;DHT22;4624;48.126;11.546;2022-09-09T05:42:07;16.10;99.90
9179;DHT22;4624;48.126;11.546;2022-09-09T05:44:33;16.10;99.90
9179;DHT22;4624;48.126;11.546;2022-09-09T05:47:00;16.20;99.90
9179;DHT22;4624;48.126;11.546;2022-09-09T05:49:27;16.20;99.90
9179;DHT22;4624;48.126;11.546;2022-09-09T05:51:54;16.20;99.90
9179;DHT22;4624;48.126;11.546;2022-09-09T05:54:22;16.20;99.90
9179;DHT22;4624;48.126;11.546;2022-09-09T05:56:49;16.30;99.90
9179;DHT22;4624;48.126;11.546;2022-09-09T05:59:18;16.30;99.90
9179;DHT22;4624;48.126;11.546;2022-09-09T06:01:44;16.40;99.90
9179;DHT22;4624;48.126;11.546;2022-09-09T06:04:11;16.40;99.90
9179;DHT22;4624;48.126;11.546;2022-09-09T06:06:38;16.50;99.90
9179;DHT22;4624;48.126;11.546;2022-09-09T06:09:08;16.50;99.90
9179;DHT22;4624;48.126;11.546;2022-09-09T06:11:38;16.50;99.90
9179;DHT22;4624;48.126;11.546;2022-09-09T06:14:06;16.50;99.90
9179;DHT22;4624;48.126;11.546;2022-09-09T06:16:33;16.60;99.90
9179;DHT22;4624;48.126;11.546;2022-09-09T06:19:00;16.60;99.90
9179;DHT22;4624;48.126;11.546;2022-09-09T06:21:30;16.60;99.90
9179;DHT22;4624;48.126;11.546;2022-09-09T06:23:59;16.70;99.90
9179;DHT22;4624;48.126;11.546;2022-09-09T06:26:27;16.70;99.90
9179;DHT22;4624;48.126;11.546;2022-09-09T06:28:56;16.60;99.90
9179;DHT22;4624;48.126;11.546;2022-09-09T06:31:24;16.60;99.90
9179;DHT22;4624;48.126;11.546;2022-09-09T06:33:53;16.70;99.90
9179;DHT22;4624;48.126;11.546;2022-09-09T06:36:22;16.70;99.90
9179;DHT22;4624;48.126;11.546;2022-09-09T06:38:49;16.70;99.90
9179;DHT22;4624;48.126;11.546;2022-09-09T06:41:17;16.70;99.90
9179;DHT22;4624;48.126;11.546;2022-09-09T06:43:44;16.70;99.90
9179;DHT22;4624;48.126;11.546;2022-09-09T06:46:15;16.80;99.90
9179;DHT22;4624;48.126;11.546;2022-09-09T06:48:43;16.80;99.90
9179;DHT22;4624;48.126;11.546;2022-09-09T06:51:12;16.90;99.90
9179;DHT22;4624;48.126;11.546;2022-09-09T06:53:41;17.00;99.90
9179;DHT22;4624;48.126;11.546;2022-09-09T06:56:19;17.00;99.90
9179;DHT22;4624;48.126;11.546;2022-09-09T06:58:47;17.10;99.90
9179;DHT22;4624;48.126;11.546;2022-09-09T07:01:16;17.10;99.90
9179;DHT22;4624;48.126;11.546;2022-09-09T07:03:46;17.20;99.90
9179;DHT22;4624;48.126;11.546;2022-09-09T07:06:16;17.20;99.90
9179;DHT22;4624;48.126;11.546;2022-09-09T07:08:43;17.30;99.90
9179;DHT22;4624;48.126;11.546;2022-09-09T07:11:10;17.30;99.90
9179;DHT22;4624;48.126;11.546;2022-09-09T07:13:37;17.30;99.90
9179;DHT22;4624;48.126;11.546;2022-09-09T07:16:04;17.20;99.90
9179;DHT22;4624;48.126;11.546;2022-09-09T07:18:34;17.30;99.90
9179;DHT22;4624;48.126;11.546;2022-09-09T07:21:02;17.20;99.90
9179;DHT22;4624;48.126;11.546;2022-09-09T07:23:29;17.20;99.90
9179;DHT22;4624;48.126;11.546;2022-09-09T07:25:56;17.20;99.90
9179;DHT22;4624;48.126;11.546;2022-09-09T07:28:24;17.20;99.90
9179;DHT22;4624;48.126;11.546;2022-09-09T07:30:55;17.20;99.90
9179;DHT22;4624;48.126;11.546;2022-09-09T07:33:21;17.30;99.90
9179;DHT22;4624;48.126;11.546;2022-09-09T07:35:50;17.30;99.90
9179;DHT22;4624;48.126;11.546;2022-09-09T07:38:18;17.30;99.90
9179;DHT22;4624;48.126;11.546;2022-09-09T07:40:45;17.40;99.90
9179;DHT22;4624;48.126;11.546;2022-09-09T07:43:12;17.50;99.90
9179;DHT22;4624;48.126;11.546;2022-09-09T07:45:39;17.60;99.90
9179;DHT22;4624;48.126;11.546;2022-09-09T07:48:08;17.60;99.90
9179;DHT22;4624;48.126;11.546;2022-09-09T07:50:35;17.70;99.90
9179;DHT22;4624;48.126;11.546;2022-09-09T07:53:03;17.70;99.90
9179;DHT22;4624;48.126;11.546;2022-09-09T07:55:31;17.80;99.90
9179;DHT22;4624;48.126;11.546;2022-09-09T07:57:58;17.80;99.90
9179;DHT22;4624;48.126;11.546;2022-09-09T08:00:25;17.90;99.90
9179;DHT22;4624;48.126;11.546;2022-09-09T08:02:53;17.90;99.90
9179;DHT22;4624;48.126;11.546;2022-09-09T08:05:20;18.00;99.90
9179;DHT22;4624;48.126;11.546;2022-09-09T08:07:47;18.00;99.90
9179;DHT22;4624;48.126;11.546;2022-09-09T08:10:16;18.00;99.90
9179;DHT22;4624;48.126;11.546;2022-09-09T08:12:43;18.10;99.90
9179;DHT22;4624;48.126;11.546;2022-09-09T08:15:10;18.10;99.90
9179;DHT22;4624;48.126;11.546;2022-09-09T08:17:38;18.20;99.90
9179;DHT22;4624;48.126;11.546;2022-09-09T08:20:05;18.20;99.90
9179;DHT22;4624;48.126;11.546;2022-09-09T08:22:32;18.20;99.80
9179;DHT22;4624;48.126;11.546;2022-09-09T08:24:59;18.20;99.60
9179;DHT22;4624;48.126;11.546;2022-09-09T08:27:29;18.10;99.60
9179;DHT22;4624;48.126;11.546;2022-09-09T08:29:57;18.20;99.70
9179;DHT22;4624;48.126;11.546;2022-09-09T08:32:24;18.20;99.70
9179;DHT22;4624;48.126;11.546;2022-09-09T08:34:51;18.30;99.80
9179;DHT22;4624;48.126;11.546;2022-09-09T08:37:18;18.50;99.80
9179;DHT22;4624;48.126;11.546;2022-09-09T08:39:45;18.50;99.60
9179;DHT22;4624;48.126;11.546;2022-09-09T08:42:31;18.50;99.50
9179;DHT22;4624;48.126;11.546;2022-09-09T08:45:28;18.40;99.40
9179;DHT22;4624;48.126;11.546;2022-09-09T08:48:07;18.40;99.40
9179;DHT22;4624;48.126;11.546;2022-09-09T08:50:37;18.30;99.50
9179;DHT22;4624;48.126;11.546;2022-09-09T08:53:11;18.20;99.60
9179;DHT22;4624;48.126;11.546;2022-09-09T08:55:45;18.20;99.90
9179;DHT22;4624;48.126;11.546;2022-09-09T08:58:16;18.20;99.90
9179;DHT22;4624;48.126;11.546;2022-09-09T09:00:57;18.20;99.90
9179;DHT22;4624;48.126;11.546;2022-09-09T09:03:35;18.20;99.90
9179;DHT22;4624;48.126;11.546;2022-09-09T09:06:26;18.30;99.90
9179;DHT22;4624;48.126;11.546;2022-09-09T09:08:58;18.30;99.90
9179;DHT22;4624;48.126;11.546;2022-09-09T09:11:27;18.30;99.90
9179;DHT22;4624;48.126;11.546;2022-09-09T09:14:04;18.40;99.90
9179;DHT22;4624;48.126;11.546;2022-09-09T09:16:38;18.40;99.90
9179;DHT22;4624;48.126;11.546;2022-09-09T09:19:08;18.50;99.90
9179;DHT22;4624;48.126;11.546;2022-09-09T09:21:42;18.60;99.90
9179;DHT22;4624;48.126;11.546;2022-09-09T09:24:16;18.60;99.90
9179;DHT22;4624;48.126;11.546;2022-09-09T09:26:43;18.70;99.90
9179;DHT22;4624;48.126;11.546;2022-09-09T09:29:13;18.80;99.90
9179;DHT22;4624;48.126;11.546;2022-09-09T09:31:43;19.00;99.90
9179;DHT22;4624;48.126;11.546;2022-09-09T09:34:13;19.10;99.90
9179;DHT22;4624;48.126;11.546;2022-09-09T09:36:42;19.20;99.80
9179;DHT22;4624;48.126;11.546;2022-09-09T09:39:10;19.20;99.70
9179;DHT22;4624;48.126;11.546;2022-09-09T09:41:38;19.20;99.70
9179;DHT22;4624;48.126;11.546;2022-09-09T09:44:21;19.10;99.70
9179;DHT22;4624;48.126;11.546;2022-09-09T09:46:48;19.10;99.70
9179;DHT22;4624;48.126;11.546;2022-09-09T09:49:15;19.00;99.60
9179;DHT22;4624;48.126;11.546;2022-09-09T09:51:42;19.00;99.70
9179;DHT22;4624;48.126;11.546;2022-09-09T09:54:16;19.00;99.70
9179;DHT22;4624;48.126;11.546;2022-09-09T09:56:45;19.00;99.80
9179;DHT22;4624;48.126;11.546;2022-09-09T09:59:33;19.00;99.90
9179;DHT22;4624;48.126;11.546;2022-09-09T10:02:15;19.00;99.90
9179;DHT22;4624;48.126;11.546;2022-09-09T10:04:42;18.90;99.90
9179;DHT22;4624;48.126;11.546;2022-09-09T10:07:11;18.80;99.90
9179;DHT22;4624;48.126;11.546;2022-09-09T10:09:38;18.70;99.60
9179;DHT22;4624;48.126;11.546;2022-09-09T10:12:14;18.60;99.50
9179;DHT22;4624;48.126;11.546;2022-09-09T10:14:48;18.50;99.50
9179;DHT22;4624;48.126;11.546;2022-09-09T10:17:20;18.50;99.50
9179;DHT22;4624;48.126;11.546;2022-09-09T10:19:58;18.50;99.70
9179;DHT22;4624;48.126;11.546;2022-09-09T10:22:28;18.40;99.80
9179;DHT22;4624;48.126;11.546;2022-09-09T10:25:19;18.40;99.80
9179;DHT22;4624;48.126;11.546;2022-09-09T10:27:57;18.30;99.80
9179;DHT22;4624;48.126;11.546;2022-09-09T10:30:33;18.30;99.80
9179;DHT22;4624;48.126;11.546;2022-09-09T10:33:09;18.30;99.90
9179;DHT22;4624;48.126;11.546;2022-09-09T10:35:43;18.40;99.80
9179;DHT22;4624;48.126;11.546;2022-09-09T10:38:16;18.40;99.70
9179;DHT22;4624;48.126;11.546;2022-09-09T10:44:03;18.40;99.80
9179;DHT22;4624;48.126;11.546;2022-09-09T10:46:46;18.40;99.60
9179;DHT22;4624;48.126;11.546;2022-09-09T10:49:23;18.40;99.70
9179;DHT22;4624;48.126;11.546;2022-09-09T10:51:57;18.50;99.60
9179;DHT22;4624;48.126;11.546;2022-09-09T10:54:40;18.50;99.40
9179;DHT22;4624;48.126;11.546;2022-09-09T10:57:16;18.50;99.30
9179;DHT22;4624;48.126;11.546;2022-09-09T10:59:48;18.50;99.10
9179;DHT22;4624;48.126;11.546;2022-09-09T11:02:25;18.60;99.10
9179;DHT22;4624;48.126;11.546;2022-09-09T11:04:55;18.80;98.80
9179;DHT22;4624;48.126;11.546;2022-09-09T11:07:28;19.10;98.60
9179;DHT22;4624;48.126;11.546;2022-09-09T11:10:01;19.20;98.40
9179;DHT22;4624;48.126;11.546;2022-09-09T11:12:30;19.30;98.30
9179;DHT22;4624;48.126;11.546;2022-09-09T11:14:59;19.40;98.10
9179;DHT22;4624;48.126;11.546;2022-09-09T11:17:35;19.40;97.90
9179;DHT22;4624;48.126;11.546;2022-09-09T11:20:05;19.60;97.90
9179;DHT22;4624;48.126;11.546;2022-09-09T11:22:35;19.70;97.90
9179;DHT22;4624;48.126;11.546;2022-09-09T11:25:06;19.90;97.20
9179;DHT22;4624;48.126;11.546;2022-09-09T11:27:40;20.10;97.00
9179;DHT22;4624;48.126;11.546;2022-09-09T11:30:18;20.10;96.90
9179;DHT22;4624;48.126;11.546;2022-09-09T11:33:12;20.20;96.60
9179;DHT22;4624;48.126;11.546;2022-09-09T11:35:52;20.70;96.40
9179;DHT22;4624;48.126;11.546;2022-09-09T11:38:26;21.20;95.80
9179;DHT22;4624;48.126;11.546;2022-09-09T11:40:58;21.50;95.50
9179;DHT22;4624;48.126;11.546;2022-09-09T11:43:29;21.80;94.60
9179;DHT22;4624;48.126;11.546;2022-09-09T11:45:58;21.80;94.70
9179;DHT22;4624;48.126;11.546;2022-09-09T11:48:32;21.80;94.00
9179;DHT22;4624;48.126;11.546;2022-09-09T11:51:03;21.60;93.90
9179;DHT22;4624;48.126;11.546;2022-09-09T11:53:31;21.40;94.00
9179;DHT22;4624;48.126;11.546;2022-09-09T11:56:10;21.20;93.60
9179;DHT22;4624;48.126;11.546;2022-09-09T11:58:43;21.00;93.50
9179;DHT22;4624;48.126;11.546;2022-09-09T12:01:25;20.80;93.50
9179;DHT22;4624;48.126;11.546;2022-09-09T12:04:05;20.70;93.50
9179;DHT22;4624;48.126;11.546;2022-09-09T12:06:43;20.70;93.60
9179;DHT22;4624;48.126;11.546;2022-09-09T12:09:18;20.70;93.50
9179;DHT22;4624;48.126;11.546;2022-09-09T12:11:46;20.60;93.70
9179;DHT22;4624;48.126;11.546;2022-09-09T12:14:20;20.50;93.60
9179;DHT22;4624;48.126;11.546;2022-09-09T12:16:48;20.50;93.60
9179;DHT22;4624;48.126;11.546;2022-09-09T12:19:19;20.50;93.50
9179;DHT22;4624;48.126;11.546;2022-09-09T12:21:54;20.50;93.60
9179;DHT22;4624;48.126;11.546;2022-09-09T12:24:30;20.60;93.50
9179;DHT22;4624;48.126;11.546;2022-09-09T12:27:03;20.60;93.30
9179;DHT22;4624;48.126;11.546;2022-09-09T12:29:41;20.70;93.50
9179;DHT22;4624;48.126;11.546;2022-09-09T12:32:11;20.60;93.40
9179;DHT22;4624;48.126;11.546;2022-09-09T12:34:42;20.60;93.40
9179;DHT22;4624;48.126;11.546;2022-09-09T12:37:18;20.70;93.30
9179;DHT22;4624;48.126;11.546;2022-09-09T12:39:52;20.70;93.20
9179;DHT22;4624;48.126;11.546;2022-09-09T12:42:22;20.60;93.20
9179;DHT22;4624;48.126;11.546;2022-09-09T12:44:57;20.60;93.30
9179;DHT22;4624;48.126;11.546;2022-09-09T12:47:30;20.60;93.30
9179;DHT22;4624;48.126;11.546;2022-09-09T12:50:00;20.80;93.60
9179;DHT22;4624;48.126;11.546;2022-09-09T12:52:30;20.90;93.60
9179;DHT22;4624;48.126;11.546;2022-09-09T12:55:00;21.00;93.30
9179;DHT22;4624;48.126;11.546;2022-09-09T12:57:33;21.00;93.30
9179;DHT22;4624;48.126;11.546;2022-09-09T13:00:07;21.00;93.20
9179;DHT22;4624;48.126;11.546;2022-09-09T13:02:36;20.80;93.20
9179;DHT22;4624;48.126;11.546;2022-09-09T13:05:16;20.80;93.50
9179;DHT22;4624;48.126;11.546;2022-09-09T13:07:44;20.70;93.50
9179;DHT22;4624;48.126;11.546;2022-09-09T13:10:12;20.60;93.40
9179;DHT22;4624;48.126;11.546;2022-09-09T13:12:40;20.50;93.60
9179;DHT22;4624;48.126;11.546;2022-09-09T13:15:16;20.40;93.60
9179;DHT22;4624;48.126;11.546;2022-09-09T13:17:51;20.30;93.70
9179;DHT22;4624;48.126;11.546;2022-09-09T13:20:21;20.30;93.80
9179;DHT22;4624;48.126;11.546;2022-09-09T13:22:49;20.20;93.80
9179;DHT22;4624;48.126;11.546;2022-09-09T13:25:20;20.20;94.00
9179;DHT22;4624;48.126;11.546;2022-09-09T13:27:59;20.20;94.20
9179;DHT22;4624;48.126;11.546;2022-09-09T13:30:29;20.30;94.10
9179;DHT22;4624;48.126;11.546;2022-09-09T13:33:04;20.30;93.90
9179;DHT22;4624;48.126;11.546;2022-09-09T13:35:33;20.20;93.80
9179;DHT22;4624;48.126;11.546;2022-09-09T13:38:07;20.10;93.90
9179;DHT22;4624;48.126;11.546;2022-09-09T13:40:34;20.10;94.10
9179;DHT22;4624;48.126;11.546;2022-09-09T13:43:02;20.10;94.20
9179;DHT22;4624;48.126;11.546;2022-09-09T13:45:30;20.00;94.10
9179;DHT22;4624;48.126;11.546;2022-09-09T13:48:09;20.00;93.90
9179;DHT22;4624;48.126;11.546;2022-09-09T13:50:37;20.00;93.70
9179;DHT22;4624;48.126;11.546;2022-09-09T13:53:04;20.00;93.80
9179;DHT22;4624;48.126;11.546;2022-09-09T13:55:31;19.90;93.70
9179;DHT22;4624;48.126;11.546;2022-09-09T13:57:59;19.90;93.90
9179;DHT22;4624;48.126;11.546;2022-09-09T14:00:28;19.80;93.90
9179;DHT22;4624;48.126;11.546;2022-09-09T14:02:55;19.70;94.20
9179;DHT22;4624;48.126;11.546;2022-09-09T14:05:22;19.70;94.40
9179;DHT22;4624;48.126;11.546;2022-09-09T14:07:52;19.60;94.30
9179;DHT22;4624;48.126;11.546;2022-09-09T14:10:19;19.60;94.30
9179;DHT22;4624;48.126;11.546;2022-09-09T14:12:46;19.50;94.40
9179;DHT22;4624;48.126;11.546;2022-09-09T14:15:13;19.50;94.30
9179;DHT22;4624;48.126;11.546;2022-09-09T14:17:40;19.50;94.40
9179;DHT22;4624;48.126;11.546;2022-09-09T14:20:08;19.50;94.50
9179;DHT22;4624;48.126;11.546;2022-09-09T14:22:35;19.50;94.60
9179;DHT22;4624;48.126;11.546;2022-09-09T14:25:06;19.60;94.80
9179;DHT22;4624;48.126;11.546;2022-09-09T14:27:33;19.60;94.70
9179;DHT22;4624;48.126;11.546;2022-09-09T14:30:01;19.60;94.60
9179;DHT22;4624;48.126;11.546;2022-09-09T14:32:27;19.60;94.50
9179;DHT22;4624;48.126;11.546;2022-09-09T14:34:54;19.50;94.50
9179;DHT22;4624;48.126;11.546;2022-09-09T14:37:21;19.40;94.60
9179;DHT22;4624;48.126;11.546;2022-09-09T14:39:48;19.40;94.60
9179;DHT22;4624;48.126;11.546;2022-09-09T14:42:17;19.40;94.70
9179;DHT22;4624;48.126;11.546;2022-09-09T14:44:44;19.40;94.80
9179;DHT22;4624;48.126;11.546;2022-09-09T14:47:10;19.30;94.90
9179;DHT22;4624;48.126;11.546;2022-09-09T14:49:38;19.30;94.80
9179;DHT22;4624;48.126;11.546;2022-09-09T14:52:05;19.30;94.80
9179;DHT22;4624;48.126;11.546;2022-09-09T14:54:32;19.30;94.80
9179;DHT22;4624;48.126;11.546;2022-09-09T14:56:59;19.40;94.80
9179;DHT22;4624;48.126;11.546;2022-09-09T14:59:27;19.30;94.60
9179;DHT22;4624;48.126;11.546;2022-09-09T15:01:53;19.30;94.60
9179;DHT22;4624;48.126;11.546;2022-09-09T15:04:20;19.30;94.50
9179;DHT22;4624;48.126;11.546;2022-09-09T15:06:47;19.20;94.40
9179;DHT22;4624;48.126;11.546;2022-09-09T15:09:15;19.20;94.40
9179;DHT22;4624;48.126;11.546;2022-09-09T15:11:42;19.20;94.40
9179;DHT22;4624;48.126;11.546;2022-09-09T15:14:09;19.20;94.00
9179;DHT22;4624;48.126;11.546;2022-09-09T15:16:39;19.20;94.10
9179;DHT22;4624;48.126;11.546;2022-09-09T15:19:06;19.20;93.90
9179;DHT22;4624;48.126;11.546;2022-09-09T15:21:35;19.20;93.90
9179;DHT22;4624;48.126;11.546;2022-09-09T15:24:02;19.20;93.80
9179;DHT22;4624;48.126;11.546;2022-09-09T15:26:29;19.10;93.60
9179;DHT22;4624;48.126;11.546;2022-09-09T15:28:57;19.00;93.40
9179;DHT22;4624;48.126;11.546;2022-09-09T15:31:27;19.00;93.50
9179;DHT22;4624;48.126;11.546;2022-09-09T15:33:57;19.00;93.60
9179;DHT22;4624;48.126;11.546;2022-09-09T15:36:29;19.00;93.70
9179;DHT22;4624;48.126;11.546;2022-09-09T15:38:58;18.90;93.80
9179;DHT22;4624;48.126;11.546;2022-09-09T15:41:25;18.90;93.60
9179;DHT22;4624;48.126;11.546;2022-09-09T15:43:54;18.80;93.80
9179;DHT22;4624;48.126;11.546;2022-09-09T15:46:28;18.80;93.90
9179;DHT22;4624;48.126;11.546;2022-09-09T15:48:58;18.80;93.90
9179;DHT22;4624;48.126;11.546;2022-09-09T15:51:25;18.90;94.00
9179;DHT22;4624;48.126;11.546;2022-09-09T15:53:56;19.00;94.10
9179;DHT22;4624;48.126;11.546;2022-09-09T15:56:24;19.10;93.80
9179;DHT22;4624;48.126;11.546;2022-09-09T15:58:51;19.20;93.70
9179;DHT22;4624;48.126;11.546;2022-09-09T16:01:18;19.20;93.70
9179;DHT22;4624;48.126;11.546;2022-09-09T16:03:46;19.20;93.60
9179;DHT22;4624;48.126;11.546;2022-09-09T16:06:17;19.10;93.60
9179;DHT22;4624;48.126;11.546;2022-09-09T16:08:44;19.00;93.40